createdAt,value
2019-01-22T00:00:21.672Z,0.1
2019-01-22T00:02:21.567Z,0.01
2019-01-22T00:03:13.721Z,-0.06
2019-01-22T00:04:06.079Z,-0.21
2019-01-22T00:04:58.508Z,-0.08
2019-01-22T00:05:51.793Z,-0.21
2019-01-22T00:06:43.856Z,-0.3
2019-01-22T00:07:36.196Z,-0.35
2019-01-22T00:08:28.863Z,-0.21
2019-01-22T00:09:21.394Z,-0.26
2019-01-22T00:10:13.433Z,-0.26
2019-01-22T00:11:05.637Z,-0.3
2019-01-22T00:11:57.849Z,-0.27
2019-01-22T00:12:50.076Z,-0.45
2019-01-22T00:13:43.082Z,-0.45
2019-01-22T00:14:35.445Z,-0.5
2019-01-22T00:15:27.493Z,-0.47
2019-01-22T00:16:19.598Z,-0.47
2019-01-22T00:17:11.923Z,-0.44
2019-01-22T00:18:04.107Z,-0.56
2019-01-22T00:18:56.198Z,-0.56
2019-01-22T00:19:48.582Z,-0.65
2019-01-22T00:20:41.354Z,-0.71
2019-01-22T00:21:33.251Z,-0.83
2019-01-22T00:22:25.672Z,-0.9
2019-01-22T00:23:18.215Z,-1.02
2019-01-22T00:24:10.634Z,-1.1
2019-01-22T00:25:02.656Z,-1.14
2019-01-22T00:25:54.743Z,-1.14
2019-01-22T00:26:47.047Z,-1.21
2019-01-22T00:27:39.334Z,-1.18
2019-01-22T00:28:31.576Z,-1.14
2019-01-22T00:29:24.932Z,-0.95
2019-01-22T00:30:17.741Z,-0.9
2019-01-22T00:31:10.095Z,-0.77
2019-01-22T00:32:02.295Z,-0.78
2019-01-22T00:32:54.691Z,-0.63
2019-01-22T00:33:46.697Z,-0.74
2019-01-22T00:34:39.176Z,-0.7
2019-01-22T00:35:32.666Z,-0.63
2019-01-22T00:36:25.056Z,-0.71
2019-01-22T00:37:18.013Z,-0.74
2019-01-22T00:38:11.143Z,-0.71
2019-01-22T00:39:03.475Z,-0.6
2019-01-22T00:39:55.686Z,-0.65
2019-01-22T00:40:48.001Z,-0.74
2019-01-22T00:41:41.047Z,-0.86
2019-01-22T00:42:33.084Z,-0.74
2019-01-22T00:43:26.201Z,-0.8
2019-01-22T00:44:18.200Z,-0.77
2019-01-22T00:45:10.555Z,-0.67
2019-01-22T00:46:03.061Z,-0.77
2019-01-22T00:46:55.686Z,-0.77
2019-01-22T00:47:48.039Z,-0.65
2019-01-22T00:48:40.662Z,-0.85
2019-01-22T00:49:32.754Z,-0.95
2019-01-22T00:50:25.334Z,-0.92
2019-01-22T00:51:17.832Z,-0.96
2019-01-22T00:52:10.599Z,-0.99
2019-01-22T00:53:09.622Z,-0.97
2019-01-22T00:53:55.629Z,-1
2019-01-22T00:54:48.222Z,-1.11
2019-01-22T00:55:40.795Z,-1.11
2019-01-22T00:56:33.066Z,-1.11
2019-01-22T00:57:25.477Z,-1.15
2019-01-22T00:58:18.010Z,-1.26
2019-01-22T00:59:10.755Z,-1.23
2019-01-22T01:00:03.043Z,-1.07
2019-01-22T01:00:55.734Z,-1.05
2019-01-22T01:01:48.135Z,-1
2019-01-22T01:02:40.391Z,-0.86
2019-01-22T01:03:32.947Z,-0.9
2019-01-22T01:04:25.370Z,-0.92
2019-01-22T01:05:17.694Z,-0.77
2019-01-22T01:06:09.858Z,-0.83
2019-01-22T01:07:02.688Z,-0.7
2019-01-22T01:07:55.055Z,-0.62
2019-01-22T01:08:47.022Z,-0.71
2019-01-22T01:09:39.601Z,-0.76
2019-01-22T01:10:33.029Z,-0.7
2019-01-22T01:11:25.475Z,-0.65
2019-01-22T01:12:18.940Z,-0.67
2019-01-22T01:13:11.030Z,-0.7
2019-01-22T01:14:03.016Z,-0.67
2019-01-22T01:14:55.529Z,-0.68
2019-01-22T01:15:48.123Z,-0.63
2019-01-22T01:16:40.636Z,-0.7
2019-01-22T01:17:32.977Z,-0.58
2019-01-22T01:18:25.583Z,-0.53
2019-01-22T01:19:17.769Z,-0.45
2019-01-22T01:20:09.985Z,-0.49
2019-01-22T01:21:01.987Z,-0.5
2019-01-22T01:21:54.176Z,-0.45
2019-01-22T01:22:46.294Z,-0.32
2019-01-22T01:23:38.456Z,-0.59
2019-01-22T01:24:30.425Z,-0.63
2019-01-22T01:25:22.511Z,-0.67
2019-01-22T01:26:14.690Z,-0.56
2019-01-22T01:27:07.031Z,-0.58
2019-01-22T01:27:59.471Z,-0.52
2019-01-22T01:28:51.589Z,-0.52
2019-01-22T01:29:43.369Z,-0.53
2019-01-22T01:30:35.589Z,-0.58
2019-01-22T01:31:28.036Z,-0.5
2019-01-22T01:32:21.061Z,-0.59
2019-01-22T01:33:12.981Z,-0.53
2019-01-22T01:34:05.063Z,-0.58
2019-01-22T01:34:57.421Z,-0.55
2019-01-22T01:35:49.172Z,-0.65
2019-01-22T01:36:41.174Z,-0.56
2019-01-22T01:37:32.977Z,-0.71
2019-01-22T01:38:25.479Z,-0.63
2019-01-22T01:39:17.289Z,-0.8
2019-01-22T01:40:09.417Z,-0.85
2019-01-22T01:41:02.679Z,-0.86
2019-01-22T01:41:55.140Z,-0.9
2019-01-22T01:42:47.693Z,-0.99
2019-01-22T01:43:39.532Z,-1.05
2019-01-22T01:44:31.685Z,-0.97
2019-01-22T01:45:23.619Z,-1.07
2019-01-22T01:46:16.129Z,-1.11
2019-01-22T01:47:08.004Z,-1.11
2019-01-22T01:48:00.025Z,-1.18
2019-01-22T01:48:52.472Z,-1.38
2019-01-22T01:49:44.570Z,-1.26
2019-01-22T01:50:36.627Z,-1.15
2019-01-22T01:51:28.383Z,-1.2
2019-01-22T01:52:20.467Z,-1.26
2019-01-22T01:53:12.916Z,-1.35
2019-01-22T01:54:05.145Z,-1.43
2019-01-22T01:54:57.553Z,-1.39
2019-01-22T01:55:49.930Z,-1.36
2019-01-22T01:56:40.970Z,-1.38
2019-01-22T01:58:49.018Z,-1.2
2019-01-22T01:59:41.219Z,-1.21
2019-01-22T02:00:34.415Z,-1.31
2019-01-22T02:01:26.883Z,-1.31
2019-01-22T02:02:19.240Z,-1.36
2019-01-22T02:03:12.830Z,-1.47
2019-01-22T02:04:04.433Z,-1.56
2019-01-22T02:04:57.557Z,-1.57
2019-01-22T02:05:50.674Z,-1.54
2019-01-22T02:06:43.252Z,-1.39
2019-01-22T02:07:36.509Z,-1.17
2019-01-22T02:08:29.962Z,-1.14
2019-01-22T02:09:22.283Z,-1.02
2019-01-22T02:10:14.460Z,-1.02
2019-01-22T02:11:07.233Z,-1
2019-01-22T02:11:59.612Z,-1.05
2019-01-22T02:12:51.744Z,-1.03
2019-01-22T02:13:44.130Z,-1
2019-01-22T02:14:36.377Z,-0.86
2019-01-22T02:15:28.381Z,-0.81
2019-01-22T02:16:20.173Z,-0.73
2019-01-22T02:17:12.189Z,-0.77
2019-01-22T02:18:04.337Z,-0.9
2019-01-22T02:18:56.865Z,-0.89
2019-01-22T02:19:48.814Z,-0.8
2019-01-22T02:20:40.777Z,-0.68
2019-01-22T02:21:33.884Z,-0.67
2019-01-22T02:22:26.009Z,-0.74
2019-01-22T02:23:19.114Z,-0.7
2019-01-22T02:24:10.891Z,-0.68
2019-01-22T02:25:03.682Z,-0.77
2019-01-22T02:25:55.700Z,-0.81
2019-01-22T02:26:47.994Z,-0.9
2019-01-22T02:29:22.847Z,-0.9
2019-01-22T02:30:14.867Z,-0.92
2019-01-22T02:31:06.730Z,-0.97
2019-01-22T02:31:58.598Z,-0.85
2019-01-22T02:32:50.814Z,-0.8
2019-01-22T02:33:43.346Z,-0.86
2019-01-22T02:34:35.468Z,-0.77
2019-01-22T02:35:27.331Z,-0.74
2019-01-22T02:36:19.586Z,-0.96
2019-01-22T02:37:11.582Z,-0.77
2019-01-22T02:38:03.751Z,-0.8
2019-01-22T02:38:55.892Z,-0.78
2019-01-22T02:39:48.431Z,-0.73
2019-01-22T02:40:40.264Z,-0.67
2019-01-22T02:41:32.696Z,-0.62
2019-01-22T02:42:25.503Z,-0.6
2019-01-22T02:43:17.436Z,-0.58
2019-01-22T02:44:09.329Z,-0.59
2019-01-22T02:45:02.630Z,-0.68
2019-01-22T02:45:54.718Z,-0.65
2019-01-22T02:46:46.798Z,-0.76
2019-01-22T02:47:39.334Z,-0.77
2019-01-22T02:48:31.697Z,-0.95
2019-01-22T02:49:23.711Z,-0.86
2019-01-22T02:50:16.148Z,-0.93
2019-01-22T02:51:07.942Z,-0.93
2019-01-22T02:52:00.096Z,-1.02
2019-01-22T02:52:52.278Z,-1.29
2019-01-22T02:53:44.198Z,-1.28
2019-01-22T02:54:36.253Z,-1.2
2019-01-22T02:55:28.944Z,-1.36
2019-01-22T02:56:21.240Z,-1.51
2019-01-22T02:57:13.660Z,-1.59
2019-01-22T02:58:05.689Z,-1.67
2019-01-22T02:58:57.786Z,-1.7
2019-01-22T02:59:50.405Z,-1.51
2019-01-22T03:00:42.912Z,-1.5
2019-01-22T03:01:34.871Z,-1.49
2019-01-22T03:02:27.022Z,-1.49
2019-01-22T03:03:19.059Z,-1.39
2019-01-22T03:04:11.287Z,-1.54
2019-01-22T03:05:04.008Z,-1.51
2019-01-22T03:05:56.301Z,-1.43
2019-01-22T03:06:48.283Z,-1.53
2019-01-22T03:07:40.722Z,-1.47
2019-01-22T03:08:32.937Z,-1.41
2019-01-22T03:09:25.075Z,-1.43
2019-01-22T03:10:17.002Z,-1.21
2019-01-22T03:11:08.852Z,-1.28
2019-01-22T03:12:00.742Z,-1.31
2019-01-22T03:12:52.758Z,-1.46
2019-01-22T03:13:45.346Z,-1.56
2019-01-22T03:14:37.709Z,-1.86
2019-01-22T03:15:30.391Z,-2.04
2019-01-22T03:16:22.637Z,-2.11
2019-01-22T03:17:14.707Z,-2.32
2019-01-22T03:18:06.785Z,-2.25
2019-01-22T03:18:59.117Z,-2.26
2019-01-22T03:19:51.231Z,-2.21
2019-01-22T03:20:43.400Z,-1.95
2019-01-22T03:21:31.346Z,-1.89
2019-01-22T03:22:11.512Z,-1.77
2019-01-22T03:22:51.908Z,-1.78
2019-01-22T03:23:32.294Z,-1.7
2019-01-22T03:24:12.695Z,-1.7
2019-01-22T03:24:53.236Z,-1.71
2019-01-22T03:25:33.622Z,-1.93
2019-01-22T03:26:14.011Z,-1.96
2019-01-22T03:26:54.490Z,-1.8
2019-01-22T03:27:34.931Z,-1.89
2019-01-22T03:28:15.330Z,-1.72
2019-01-22T03:28:55.673Z,-1.71
2019-01-22T03:29:36.069Z,-1.67
2019-01-22T03:30:16.614Z,-1.43
2019-01-22T03:30:56.936Z,-1.43
2019-01-22T03:31:37.427Z,-1.39
2019-01-22T03:32:17.693Z,-1.33
2019-01-22T03:32:58.102Z,-1.38
2019-01-22T03:33:38.539Z,-1.39
2019-01-22T03:34:18.891Z,-1.38
2019-01-22T03:34:59.239Z,-1.36
2019-01-22T03:35:39.665Z,-1.44
2019-01-22T03:36:20.008Z,-1.47
2019-01-22T03:37:00.355Z,-1.44
2019-01-22T03:37:40.791Z,-1.57
2019-01-22T03:38:21.262Z,-1.49
2019-01-22T03:39:01.610Z,-1.54
2019-01-22T03:39:41.907Z,-1.51
2019-01-22T03:40:22.427Z,-1.44
2019-01-22T03:41:02.748Z,-1.49
2019-01-22T03:41:43.201Z,-1.38
2019-01-22T03:42:23.581Z,-1.17
2019-01-22T03:43:04.041Z,-1.18
2019-01-22T03:43:44.424Z,-1.18
2019-01-22T03:44:24.738Z,-1.15
2019-01-22T03:45:05.299Z,-1.15
2019-01-22T03:45:45.744Z,-1.2
2019-01-22T03:46:26.136Z,-1.11
2019-01-22T03:47:06.529Z,-0.99
2019-01-22T03:47:46.943Z,-1.05
2019-01-22T03:48:27.311Z,-1.14
2019-01-22T03:49:07.728Z,-1.17
2019-01-22T03:49:48.072Z,-1.17
2019-01-22T03:50:28.495Z,-1.18
2019-01-22T03:51:08.963Z,-1.2
2019-01-22T03:51:49.254Z,-1.21
2019-01-22T03:52:29.676Z,-1.25
2019-01-22T03:53:10.021Z,-1.17
2019-01-22T03:53:53.755Z,-1.15
2019-01-22T03:54:30.789Z,-1.14
2019-01-22T03:55:11.222Z,-1.03
2019-01-22T03:55:51.620Z,-1.1
2019-01-22T03:56:32.012Z,-1.08
2019-01-22T03:57:12.524Z,-1.03
2019-01-22T03:57:52.849Z,-1.02
2019-01-22T03:58:33.319Z,-0.95
2019-01-22T03:59:13.705Z,-1.07
2019-01-22T03:59:54.294Z,-1.02
2019-01-22T04:00:34.507Z,-1.02
2019-01-22T04:01:14.881Z,-1.02
2019-01-22T04:01:55.386Z,-1.08
2019-01-22T04:02:35.709Z,-1.08
2019-01-22T04:03:16.130Z,-1.11
2019-01-22T04:03:56.498Z,-1.1
2019-01-22T04:04:37.002Z,-1.03
2019-01-22T04:05:17.440Z,-1.2
2019-01-22T04:05:57.807Z,-1.31
2019-01-22T04:06:38.148Z,-1.33
2019-01-22T04:07:18.571Z,-1.36
2019-01-22T04:07:58.993Z,-1.33
2019-01-22T04:08:39.413Z,-1.33
2019-01-22T04:09:19.791Z,-1.46
2019-01-22T04:10:00.228Z,-1.39
2019-01-22T04:10:40.719Z,-1.29
2019-01-22T04:11:21.072Z,-1.21
2019-01-22T04:12:01.487Z,-1.21
2019-01-22T04:12:41.886Z,-1.17
2019-01-22T04:13:22.322Z,-1.14
2019-01-22T04:14:02.806Z,-1.07
2019-01-22T04:14:43.196Z,-0.95
2019-01-22T04:15:23.679Z,-0.86
2019-01-22T04:16:04.071Z,-0.89
2019-01-22T04:16:44.481Z,-0.83
2019-01-22T04:17:25.105Z,-0.77
2019-01-22T04:18:05.229Z,-0.63
2019-01-22T04:18:45.663Z,-0.68
2019-01-22T04:19:26.136Z,-0.73
2019-01-22T04:20:06.459Z,-0.8
2019-01-22T04:20:46.946Z,-0.9
2019-01-22T04:21:27.364Z,-0.86
2019-01-22T04:22:07.852Z,-0.83
2019-01-22T04:22:48.338Z,-0.96
2019-01-22T04:23:28.630Z,-1.02
2019-01-22T04:24:09.140Z,-1.03
2019-01-22T04:24:49.658Z,-1.18
2019-01-22T04:25:30.755Z,-1.2
2019-01-22T04:26:10.573Z,-1.21
2019-01-22T04:26:51.009Z,-1.23
2019-01-22T04:27:31.488Z,-1.28
2019-01-22T05:06:50.051Z,-2.03
2019-01-22T05:07:42.397Z,-2.06
2019-01-22T05:08:34.779Z,-2.06
2019-01-22T05:09:27.318Z,-2
2019-01-22T05:10:19.852Z,-2.14
2019-01-22T05:11:12.823Z,-2.01
2019-01-22T05:12:06.994Z,-1.95
2019-01-22T05:13:00.709Z,-1.95
2019-01-22T05:13:53.843Z,-1.72
2019-01-22T05:14:46.385Z,-1.83
2019-01-22T05:15:39.075Z,-1.77
2019-01-22T05:16:31.371Z,-1.82
2019-01-22T05:17:23.808Z,-1.77
2019-01-22T05:18:16.891Z,-1.93
2019-01-22T05:19:10.186Z,-2.03
2019-01-22T05:20:02.918Z,-2.04
2019-01-22T05:20:55.236Z,-2.13
2019-01-22T05:21:47.948Z,-2.13
2019-01-22T05:22:40.616Z,-2.08
2019-01-22T05:23:34.191Z,-2.06
2019-01-22T05:24:26.856Z,-2.21
2019-01-22T05:25:19.531Z,-2.11
2019-01-22T05:26:12.137Z,-2.16
2019-01-22T05:27:04.909Z,-2.11
2019-01-22T05:27:57.958Z,-2.29
2019-01-22T05:28:50.965Z,-2.38
2019-01-22T05:29:43.751Z,-2.56
2019-01-22T05:30:36.520Z,-2.82
2019-01-22T05:31:28.853Z,-2.84
2019-01-22T05:32:22.890Z,-3.04
2019-01-22T05:33:16.133Z,-3.04
2019-01-22T05:34:09.314Z,-3.18
2019-01-22T05:35:01.375Z,-3.18
2019-01-22T05:35:53.642Z,-3.18
2019-01-22T05:36:45.933Z,-3.13
2019-01-22T05:37:38.648Z,-3.23
2019-01-22T05:38:32.359Z,-3.12
2019-01-22T05:39:24.928Z,-3.13
2019-01-22T05:40:17.440Z,-3.21
2019-01-22T05:41:11.191Z,-3.23
2019-01-22T05:42:04.293Z,-3.19
2019-01-22T05:42:57.283Z,-3.1
2019-01-22T05:43:49.864Z,-2.98
2019-01-22T05:44:42.210Z,-3.01
2019-01-22T05:45:37.461Z,-3.02
2019-01-22T05:46:30.199Z,-2.89
2019-01-22T05:47:24.803Z,-2.94
2019-01-22T05:48:19.337Z,-3.08
2019-01-22T05:49:12.130Z,-3.13
2019-01-22T05:50:04.135Z,-3.12
2019-01-22T05:50:56.842Z,-3.13
2019-01-22T05:51:50.176Z,-3.05
2019-01-22T05:52:43.113Z,-3.08
2019-01-22T05:53:36.125Z,-3.15
2019-01-22T05:54:29.231Z,-3.16
2019-01-22T05:55:21.651Z,-3.02
2019-01-22T05:56:14.398Z,-3.02
2019-01-22T05:57:08.201Z,-2.97
2019-01-22T05:58:00.742Z,-3.02
2019-01-22T05:58:53.884Z,-2.84
2019-01-22T05:59:46.339Z,-2.83
2019-01-22T06:00:39.102Z,-2.59
2019-01-22T06:01:32.777Z,-2.51
2019-01-22T06:02:25.109Z,-2.38
2019-01-22T06:03:17.539Z,-2.33
2019-01-22T06:04:09.972Z,-2.24
2019-01-22T06:05:03.007Z,-2.24
2019-01-22T06:05:59.855Z,-2.33
2019-01-22T06:06:51.757Z,-2.4
2019-01-22T06:07:44.399Z,-2.33
2019-01-22T06:08:37.448Z,-2.43
2019-01-22T06:09:29.978Z,-2.26
2019-01-22T06:10:22.010Z,-2.22
2019-01-22T06:11:13.720Z,-2.21
2019-01-22T06:12:06.786Z,-2.19
2019-01-22T06:13:00.347Z,-2.35
2019-01-22T06:13:55.415Z,-2.25
2019-01-22T06:14:50.908Z,-2.25
2019-01-22T06:15:43.189Z,-2.06
2019-01-22T06:16:50.195Z,-2.19
2019-01-22T06:17:48.267Z,-2.28
2019-01-22T06:18:41.819Z,-2.47
2019-01-22T06:19:33.937Z,-2.37
2019-01-22T06:20:25.897Z,-2.47
2019-01-22T06:21:19.062Z,-2.48
2019-01-22T06:22:12.923Z,-2.48
2019-01-22T06:23:08.360Z,-2.48
2019-01-22T06:24:02.796Z,-2.43
2019-01-22T06:24:55.908Z,-2.38
2019-01-22T06:25:51.394Z,-2.48
2019-01-22T06:26:43.832Z,-2.55
2019-01-22T06:27:37.085Z,-2.55
2019-01-22T06:28:30.542Z,-2.64
2019-01-22T06:29:27.671Z,-2.65
2019-01-22T06:30:19.480Z,-2.61
2019-01-22T06:31:12.759Z,-2.48
2019-01-22T06:34:31.080Z,-2.08
2019-01-22T06:35:24.406Z,-1.85
2019-01-22T06:36:17.896Z,-1.92
2019-01-22T06:37:10.914Z,-1.51
2019-01-22T06:38:04.617Z,-1.28
2019-01-22T06:38:57.140Z,-1.29
2019-01-22T06:39:49.496Z,-1.13
2019-01-22T06:40:43.705Z,-1.02
2019-01-22T06:41:38.135Z,-0.86
2019-01-22T06:42:34.463Z,-0.97
2019-01-22T06:43:32.243Z,-1.08
2019-01-22T06:44:29.092Z,-1.1
2019-01-22T06:45:30.030Z,-1.21
2019-01-22T06:46:27.032Z,-1.33
2019-01-22T06:47:35.177Z,-1.28
2019-01-22T06:48:31.377Z,-1.31
2019-01-22T06:49:29.781Z,-1.23
2019-01-22T06:50:32.212Z,-1.2
2019-01-22T06:51:27.410Z,-1.14
2019-01-22T06:52:41.854Z,-1.2
2019-01-22T06:53:35.097Z,-1.11
2019-01-22T06:54:39.484Z,-1.08
2019-01-22T06:55:33.184Z,-1.13
2019-01-22T06:56:31.454Z,-0.96
2019-01-22T06:57:27.922Z,-0.86
2019-01-22T06:58:23.160Z,-0.89
2019-01-22T07:00:24.939Z,-0.65
2019-01-22T07:01:16.965Z,-0.58
2019-01-22T07:02:09.896Z,-0.63
2019-01-22T07:03:06.835Z,-0.89
2019-01-22T07:04:00.066Z,-0.85
2019-01-22T07:04:54.969Z,-0.93
2019-01-22T07:05:49.565Z,-1.05
2019-01-22T07:06:41.741Z,-1.13
2019-01-22T07:07:35.898Z,-1.17
2019-01-22T07:08:28.567Z,-1.38
2019-01-22T07:09:20.866Z,-1.43
2019-01-22T07:10:13.569Z,-1.47
2019-01-22T07:11:08.034Z,-1.31
2019-01-22T07:12:00.862Z,-1.35
2019-01-22T07:12:53.469Z,-1.33
2019-01-22T07:13:46.588Z,-1.33
2019-01-22T07:14:41.228Z,-1.33
2019-01-22T07:15:35.248Z,-1.53
2019-01-22T07:16:32.009Z,-1.72
2019-01-22T07:17:25.271Z,-1.64
2019-01-22T07:19:53.313Z,-1.61
2019-01-22T07:20:48.166Z,-1.49
2019-01-22T07:21:40.327Z,-1.49
2019-01-22T07:22:33.706Z,-1.39
2019-01-22T07:23:27.896Z,-1.41
2019-01-22T07:24:46.578Z,-1.49
2019-01-22T07:26:24.446Z,-1.67
2019-01-22T07:27:26.484Z,-1.54
2019-01-22T07:29:58.171Z,-1.47
2019-01-22T07:31:00.870Z,-1.33
2019-01-22T07:31:53.345Z,-1.26
2019-01-22T07:32:45.836Z,-1.11
2019-01-22T07:33:39.267Z,-0.86
2019-01-22T07:34:32.531Z,-0.62
2019-01-22T07:35:25.472Z,-0.09
2019-01-22T07:36:17.792Z,0.31
2019-01-22T07:37:10.346Z,0.63
2019-01-22T07:38:05.103Z,0.74
2019-01-22T07:38:59.909Z,0.53
2019-01-22T07:39:53.126Z,0.45
2019-01-22T07:40:46.091Z,0.63
2019-01-22T07:41:38.667Z,0.67
2019-01-22T07:42:31.172Z,0.72
2019-01-22T07:43:24.882Z,1.2
2019-01-22T07:44:18.665Z,1.29
2019-01-22T07:45:15.921Z,1.26
2019-01-22T07:46:10.086Z,1.53
2019-01-22T07:47:09.843Z,1.38
2019-01-22T07:48:04.445Z,1.44
2019-01-22T07:48:56.288Z,1.32
2019-01-22T07:49:52.064Z,1.04
2019-01-22T07:50:46.045Z,0.92
2019-01-22T07:51:38.018Z,0.81
2019-01-22T07:52:32.382Z,0.93
2019-01-22T07:53:27.209Z,0.72
2019-01-22T07:54:24.471Z,0.75
2019-01-22T07:55:24.242Z,0.84
2019-01-22T07:56:17.171Z,0.93
2019-01-22T07:57:13.287Z,0.6
2019-01-22T07:58:10.792Z,0.33
2019-01-22T07:59:07.343Z,0.08
2019-01-22T08:00:05.088Z,0.12
2019-01-22T08:00:55.624Z,0.01
2019-01-22T08:01:36.125Z,0.02
2019-01-22T08:02:17.687Z,-0.12
2019-01-22T08:02:58.410Z,-0.38
2019-01-22T08:03:39.045Z,-0.5
2019-01-22T08:04:20.015Z,-0.68
2019-01-22T08:05:00.583Z,-0.8
2019-01-22T08:05:42.927Z,-0.73
2019-01-22T08:06:23.215Z,-0.85
2019-01-22T08:07:03.811Z,-0.85
2019-01-22T08:07:44.097Z,-0.77
2019-01-22T08:08:24.609Z,-0.63
2019-01-22T08:09:05.780Z,-0.71
2019-01-22T08:09:46.687Z,-0.52
2019-01-22T08:10:27.822Z,-0.49
2019-01-22T08:11:09.072Z,-0.37
2019-01-22T08:11:49.498Z,-0.41
2019-01-22T08:12:29.904Z,-0.2
2019-01-22T08:13:10.815Z,-0.12
2019-01-22T08:13:51.532Z,-0.31
2019-01-22T08:14:32.009Z,-0.31
2019-01-22T08:15:12.419Z,-0.32
2019-01-22T08:17:41.170Z,-0.35
2019-01-22T08:18:41.674Z,-0.47
2019-01-22T08:20:38.901Z,-0.08
2019-01-22T08:21:33.427Z,0.3
2019-01-22T08:22:37.717Z,0.68
2019-01-22T08:23:41.053Z,0.81
2019-01-22T08:24:38.819Z,0.63
2019-01-22T08:25:32.891Z,0.62
2019-01-22T08:26:28.661Z,0.77
2019-01-22T08:27:23.510Z,1.11
2019-01-22T08:28:25.967Z,1.6
2019-01-22T08:29:20.687Z,1.71
2019-01-22T08:30:13.999Z,1.72
2019-01-22T08:31:09.488Z,1.83
2019-01-22T08:32:05.397Z,1.75
2019-01-22T08:33:00.111Z,1.5
2019-01-22T08:33:57.175Z,1.56
2019-01-22T08:34:50.794Z,1.42
2019-01-22T08:35:44.682Z,1.25
2019-01-22T08:36:43.051Z,1.04
2019-01-22T08:37:40.313Z,0.81
2019-01-22T08:38:51.498Z,0.53
2019-01-22T08:40:23.033Z,0.13
2019-01-22T08:42:32.268Z,0.01
2019-01-22T08:43:37.455Z,0.15
2019-01-22T08:44:39.422Z,0.33
2019-01-22T08:46:38.583Z,0.31
2019-01-22T08:47:33.250Z,0.17
2019-01-22T08:48:13.600Z,0.01
2019-01-22T08:48:56.607Z,-0.23
2019-01-22T08:49:38.859Z,-0.31
2019-01-22T08:50:19.819Z,-0.27
2019-01-22T08:51:00.428Z,-0.14
2019-01-22T08:54:58.633Z,-0.27
2019-01-22T08:55:39.964Z,-0.3
2019-01-22T08:56:20.921Z,-0.34
2019-01-22T08:57:02.617Z,-0.32
2019-01-22T08:57:46.798Z,-0.41
2019-01-22T08:58:34.357Z,-0.37
2019-01-22T08:59:16.789Z,-0.42
2019-01-22T09:00:00.052Z,-0.49
2019-01-22T09:00:41.948Z,-0.26
2019-01-22T09:01:24.153Z,-0.12
2019-01-22T09:02:05.622Z,-0.13
2019-01-22T09:02:47.838Z,-0.05
2019-01-22T09:03:28.381Z,-0.05
2019-01-22T09:04:15.293Z,0.07
2019-01-22T09:04:57.266Z,0.08
2019-01-22T09:05:39.630Z,0.12
2019-01-22T09:06:21.920Z,0.05
2019-01-22T09:07:03.514Z,-0.09
2019-01-22T09:07:45.712Z,-0.24
2019-01-22T09:08:27.759Z,-0.37
2019-01-22T09:09:09.801Z,-0.55
2019-01-22T09:09:52.040Z,-0.65
2019-01-22T09:10:34.192Z,-0.78
2019-01-22T09:11:16.775Z,-0.65
2019-01-22T09:11:58.093Z,-0.58
2019-01-22T09:13:52.190Z,-0.37
2019-01-22T09:15:08.236Z,-0.2
2019-01-22T09:16:05.516Z,-0.23
2019-01-22T09:17:07.813Z,-0.09
2019-01-22T09:18:04.201Z,0.08
2019-01-22T09:18:58.227Z,0.1
2019-01-22T09:19:52.862Z,0.12
2019-01-22T09:20:45.763Z,0.15
2019-01-22T09:21:41.241Z,0.49
2019-01-22T09:22:35.389Z,0.78
2019-01-22T09:23:39.918Z,0.8
2019-01-22T09:24:32.592Z,0.92
2019-01-22T09:25:24.672Z,1.02
2019-01-22T09:26:21.283Z,1.21
2019-01-22T09:27:16.291Z,1.34
2019-01-22T09:28:13.101Z,1.25
2019-01-22T09:29:14.006Z,1.21
2019-01-22T09:30:15.527Z,1.17
2019-01-22T09:31:18.715Z,0.98
2019-01-22T09:32:18.241Z,0.68
2019-01-22T09:33:22.074Z,0.7
2019-01-22T09:34:32.188Z,0.4
2019-01-22T09:35:30.293Z,0.48
2019-01-22T09:36:34.601Z,0.68
2019-01-22T09:37:40.497Z,0.99
2019-01-22T09:38:59.241Z,0.93
2019-01-22T09:40:07.390Z,0.84
2019-01-22T09:41:08.668Z,0.71
2019-01-22T09:42:13.901Z,0.92
2019-01-22T09:43:15.991Z,1.18
2019-01-22T09:45:10.006Z,0.92
2019-01-22T09:46:08.225Z,0.81
2019-01-22T09:47:10.361Z,0.68
2019-01-22T09:48:07.935Z,0.52
2019-01-22T09:49:10.880Z,0.34
2019-01-22T09:50:07.035Z,0.45
2019-01-22T09:51:06.327Z,0.48
2019-01-22T09:52:05.667Z,0.53
2019-01-22T09:53:06.149Z,0.34
2019-01-22T09:54:00.597Z,0.56
2019-01-22T09:55:10.568Z,0.52
2019-01-22T09:56:07.458Z,0.59
2019-01-22T09:57:14.417Z,0.75
2019-01-22T09:58:24.694Z,1.38
2019-01-22T10:00:35.062Z,1.39
2019-01-22T10:03:01.000Z,1.72
2019-01-22T10:04:03.354Z,1.5
2019-01-22T10:04:40.614Z,1.39
2019-01-22T10:05:28.763Z,1.25
2019-01-22T10:06:10.020Z,1.16
2019-01-22T10:06:53.597Z,1.17
2019-01-22T10:07:38.063Z,1.14
2019-01-22T10:12:16.113Z,0.64
2019-01-22T10:12:57.848Z,0.8
2019-01-22T10:13:38.414Z,0.84
2019-01-22T10:14:19.811Z,0.81
2019-01-22T10:15:09.642Z,0.68
2019-01-22T10:17:03.008Z,0.72
2019-01-22T10:19:23.217Z,0.7
2019-01-22T10:20:23.143Z,0.9
2019-01-22T10:21:25.755Z,0.96
2019-01-22T10:23:59.753Z,0.99
2019-01-22T10:25:39.415Z,1.08
2019-01-22T10:26:20.508Z,1.11
2019-01-22T10:27:00.927Z,1.17
2019-01-22T10:27:58.374Z,1.14
2019-01-22T10:28:40.888Z,1.24
2019-01-22T11:17:25.530Z,2.99
2019-01-22T11:18:26.285Z,2.95
2019-01-22T11:19:33.613Z,3.25
2019-01-22T11:20:28.888Z,3.26
2019-01-22T11:21:23.140Z,3.41
2019-01-22T11:23:16.728Z,3.53
2019-01-22T11:23:57.871Z,3.52
2019-01-22T11:24:38.874Z,3.41
2019-01-22T11:25:20.923Z,3.33
2019-01-22T11:26:02.261Z,3.26
2019-01-22T11:26:42.784Z,3.28
2019-01-22T11:27:23.048Z,3.17
2019-01-22T11:28:04.123Z,3.33
2019-01-22T11:28:49.001Z,3.6
2019-01-22T11:30:53.707Z,3.42
2019-01-22T11:31:36.684Z,3.37
2019-01-22T11:32:17.161Z,3.23
2019-01-22T11:32:57.956Z,3.02
2019-01-22T11:33:38.309Z,3.07
2019-01-22T11:34:19.394Z,3.08
2019-01-22T11:35:00.856Z,3.13
2019-01-22T11:37:23.564Z,2.94
2019-01-22T11:38:12.397Z,2.83
2019-01-22T11:38:50.004Z,2.89
2019-01-22T11:44:06.468Z,3.01
2019-01-22T11:44:50.360Z,2.92
2019-01-22T11:45:37.588Z,2.97
2019-01-22T11:46:21.912Z,3.17
2019-01-22T11:47:06.603Z,3.13
2019-01-22T11:47:48.602Z,3.02
2019-01-22T11:48:31.226Z,2.84
2019-01-22T11:49:14.628Z,2.9
2019-01-22T11:50:05.648Z,2.89
2019-01-22T11:50:50.084Z,3.04
2019-01-22T11:51:34.677Z,3.1
2019-01-22T11:52:17.260Z,3.08
2019-01-22T11:53:02.257Z,3.07
2019-01-22T11:53:46.157Z,3.07
2019-01-22T11:54:28.828Z,3.08
2019-01-22T11:55:15.108Z,3.26
2019-01-22T11:55:57.064Z,3.2
2019-01-22T11:56:37.493Z,3.19
2019-01-22T11:57:17.977Z,3.25
2019-01-22T11:57:59.647Z,3.35
2019-01-22T11:58:40.926Z,3.25
2019-01-22T11:59:22.429Z,3.25
2019-01-22T12:00:06.275Z,3.28
2019-01-22T12:00:47.922Z,3.25
2019-01-22T12:01:32.074Z,3.16
2019-01-22T12:04:22.960Z,3.2
2019-01-22T12:05:02.596Z,3.23
2019-01-22T12:05:48.061Z,3.15
2019-01-22T12:06:29.130Z,3.28
2019-01-22T12:07:11.326Z,3.2
2019-01-22T12:07:53.183Z,3.26
2019-01-22T12:10:58.759Z,2.74
2019-01-22T12:11:44.968Z,2.63
2019-01-22T12:12:29.980Z,2.61
2019-01-22T12:13:12.714Z,2.56
2019-01-22T12:13:56.002Z,2.68
2019-01-22T12:14:42.007Z,2.77
2019-01-22T12:15:29.129Z,2.92
2019-01-22T12:16:11.526Z,2.94
2019-01-22T12:16:56.814Z,2.79
2019-01-22T12:17:39.952Z,2.79
2019-01-22T12:18:37.438Z,2.68
2019-01-22T12:19:19.082Z,2.89
2019-01-22T12:20:14.086Z,3.07
2019-01-22T12:20:58.635Z,3.26
2019-01-22T12:21:41.650Z,3.37
2019-01-22T12:22:23.192Z,3.49
2019-01-22T12:24:20.523Z,3.44
2019-01-22T12:25:17.624Z,3.5
2019-01-22T12:26:31.160Z,3.3
2019-01-22T12:32:36.965Z,2.84
2019-01-22T12:33:37.782Z,2.89
2019-01-22T12:34:36.462Z,2.97
2019-01-22T12:39:58.943Z,2.76
2019-01-22T12:44:42.587Z,3.01
2019-01-22T12:45:45.751Z,3.1
2019-01-22T12:47:58.132Z,2.89
2019-01-22T12:48:56.470Z,2.77
2019-01-22T12:50:30.677Z,2.55
2019-01-22T12:51:30.483Z,2.37
2019-01-22T12:52:40.083Z,2.29
2019-01-22T12:55:29.652Z,2.12
2019-01-22T12:56:31.678Z,2.09
2019-01-22T12:57:28.046Z,2.04
2019-01-22T12:58:23.141Z,1.93
2019-01-22T13:00:57.836Z,2.01
2019-01-22T13:01:39.121Z,1.92
2019-01-22T13:02:19.419Z,2.02
2019-01-22T13:03:01.593Z,2.02
2019-01-22T13:03:43.177Z,2
2019-01-22T13:04:23.479Z,2.04
2019-01-22T13:05:04.725Z,1.89
2019-01-22T13:05:46.082Z,2.05
2019-01-22T13:06:26.746Z,1.93
2019-01-22T13:07:06.946Z,1.83
2019-01-22T13:07:47.366Z,1.82
2019-01-22T13:08:29.910Z,1.88
2019-01-22T13:09:10.712Z,1.83
2019-01-22T13:09:51.624Z,1.86
2019-01-22T13:10:32.270Z,1.83
2019-01-22T13:11:13.797Z,1.81
2019-01-22T13:11:56.158Z,1.88
2019-01-22T13:14:04.305Z,1.88
2019-01-22T13:15:01.286Z,1.86
2019-01-22T13:16:09.949Z,1.93
2019-01-22T13:17:09.112Z,1.95
2019-01-22T13:18:05.709Z,2.09
2019-01-22T13:19:00.286Z,2.25
2019-01-22T13:19:54.045Z,2.38
2019-01-22T13:22:17.208Z,2.38
2019-01-22T13:22:58.019Z,2.45
2019-01-22T13:23:40.322Z,2.43
2019-01-22T13:24:21.589Z,2.43
2019-01-22T13:25:02.836Z,2.37
2019-01-22T13:25:43.408Z,2.36
2019-01-22T13:26:23.831Z,2.36
2019-01-22T13:27:06.211Z,2.29
2019-01-22T13:27:47.094Z,2.38
2019-01-22T13:28:27.520Z,2.32
2019-01-22T13:29:08.677Z,2.23
2019-01-22T13:29:49.272Z,2.25
2019-01-22T13:30:30.381Z,2.23
2019-01-22T13:31:10.983Z,2.12
2019-01-22T13:31:51.475Z,2.07